Aeroporto :
LOGIN :

Iscrizione | Disclaimer

   EN    FR    IT 

 










Sommario :    VFR   VFR Marginale   IFR   IFR Intensivo   IFR Molto Intensivo
Visibilità : 
Base nubi : 
>= 8 km
>= 3000ft
5 / 8 km
1000 / 3000 ft
1500m / 5 km
500 / 1000 ft
800 / 1500m
200 / 500 ft
< 800m
< 200 ft
Simboli :   Temporali  Nebbia  Neve Forte  Precipitazioni Forti  Vento > 20 kt
SIGMETs :   Varie  Temporali  Ghiacco  Turbolenza  Onda orograficha  Ceneri Vulcaniche






- Altitudine del aeroporto : -13 ft
- Codice IATA : LEY


EHLE - Lelystad

ULTIMO METAR :
  • 180755Z AUTO 21009KT 9999 SCT026 BKN030 04/03 Q1020 TEMPO 7000 -SHRA FEW020CB

METARs OBSOLETI :
  • 180725Z AUTO 21009KT 180V240 9999 NCD 03/02 Q1020 TEMPO 7000 -SHRA FEW020CB
  • 180655Z AUTO 22010KT 9999 NCD 03/02 Q1020 NOSIG
  • 180625Z AUTO 22010KT 9999 FEW017 BKN022 BKN031 04/03 Q1019 NOSIG
  • 180555Z AUTO 21009KT 9999 NCD 04/03 Q1019 NOSIG
  • 180525Z AUTO 21010KT 180V240 9999 FEW015CB 04/03 Q1019 REDZ

TAF TAF EHLE
Valido dal 18 a 06 ore il 19 a 12 ore UTC


180506Z 1806/1912 24012KT 9999 SCT025
PROB30
TEMPO 1806/1906 29015G25KT 6000 SHRA SCT018CB BKN020
BECMG 1807/1810 29013KT
BECMG 1900/1903 33012KT
BECMG 1906/1909 36012KT



MetMap, La meteo Aeronautica in un colpo d'occhio ! - Copyright ORBIFLY Dicembre 2007 - Disclaimer

ORBIFLY MET'MAP TEAM :

Programmazione e sviluppo : Alexandra Zaïnal
Concezione : Baudouin d'Aumeries
Aiuto per la programmazione : Marc-Olivier Méhu
Supporto tecnico e logistico : Manuel Goepfert
Aiuto per la traduzione : Arnaldo La Scala

Contatto : metmap@orbifly.com




FONTI E CREDITI :

   NOAA